sensor_id;sensor_type;location;lat;lon;timestamp;temperature;humidity
15257;DHT22;7731;50.720;6.912;2022-08-18T00:00:07;19.30;99.90
15257;DHT22;7731;50.720;6.912;2022-08-18T00:02:46;19.20;99.90
15257;DHT22;7731;50.720;6.912;2022-08-18T00:05:27;19.10;99.90
15257;DHT22;7731;50.720;6.912;2022-08-18T00:07:57;19.20;99.90
15257;DHT22;7731;50.720;6.912;2022-08-18T00:10:28;19.10;99.90
15257;DHT22;7731;50.720;6.912;2022-08-18T00:13:01;19.10;99.90
15257;DHT22;7731;50.720;6.912;2022-08-18T00:15:31;19.20;99.90
15257;DHT22;7731;50.720;6.912;2022-08-18T00:18:14;19.00;99.90
15257;DHT22;7731;50.720;6.912;2022-08-18T00:20:45;18.90;99.90
15257;DHT22;7731;50.720;6.912;2022-08-18T00:23:16;18.80;99.90
15257;DHT22;7731;50.720;6.912;2022-08-18T00:25:47;18.70;99.90
15257;DHT22;7731;50.720;6.912;2022-08-18T00:28:19;18.70;99.90
15257;DHT22;7731;50.720;6.912;2022-08-18T00:30:50;18.70;99.90
15257;DHT22;7731;50.720;6.912;2022-08-18T00:33:20;18.80;99.90
15257;DHT22;7731;50.720;6.912;2022-08-18T00:35:51;18.70;99.90
15257;DHT22;7731;50.720;6.912;2022-08-18T00:38:23;18.60;99.90
15257;DHT22;7731;50.720;6.912;2022-08-18T00:40:54;18.50;99.90
15257;DHT22;7731;50.720;6.912;2022-08-18T00:43:31;18.40;99.90
15257;DHT22;7731;50.720;6.912;2022-08-18T00:46:07;18.30;99.90
15257;DHT22;7731;50.720;6.912;2022-08-18T00:48:40;18.30;99.90
15257;DHT22;7731;50.720;6.912;2022-08-18T00:51:18;18.30;99.90
15257;DHT22;7731;50.720;6.912;2022-08-18T00:53:57;18.40;99.90
15257;DHT22;7731;50.720;6.912;2022-08-18T00:56:37;18.40;99.90
15257;DHT22;7731;50.720;6.912;2022-08-18T00:59:21;18.40;99.90
15257;DHT22;7731;50.720;6.912;2022-08-18T01:01:58;18.40;99.90
15257;DHT22;7731;50.720;6.912;2022-08-18T01:04:37;18.40;99.90
15257;DHT22;7731;50.720;6.912;2022-08-18T01:07:15;18.20;99.90
15257;DHT22;7731;50.720;6.912;2022-08-18T01:09:51;18.20;99.90
15257;DHT22;7731;50.720;6.912;2022-08-18T01:12:21;18.20;99.90
15257;DHT22;7731;50.720;6.912;2022-08-18T01:15:16;18.10;99.90
15257;DHT22;7731;50.720;6.912;2022-08-18T01:17:56;18.10;99.90
15257;DHT22;7731;50.720;6.912;2022-08-18T01:20:58;18.20;99.90
15257;DHT22;7731;50.720;6.912;2022-08-18T01:23:49;18.20;99.90
15257;DHT22;7731;50.720;6.912;2022-08-18T01:26:24;18.20;99.90
15257;DHT22;7731;50.720;6.912;2022-08-18T01:28:53;18.10;99.90
15257;DHT22;7731;50.720;6.912;2022-08-18T01:31:32;18.10;99.90
15257;DHT22;7731;50.720;6.912;2022-08-18T01:34:21;18.00;99.90
15257;DHT22;7731;50.720;6.912;2022-08-18T01:36:53;18.00;99.90
15257;DHT22;7731;50.720;6.912;2022-08-18T01:39:29;18.00;99.90
15257;DHT22;7731;50.720;6.912;2022-08-18T01:42:19;18.00;99.90
15257;DHT22;7731;50.720;6.912;2022-08-18T01:44:50;17.90;99.90
15257;DHT22;7731;50.720;6.912;2022-08-18T01:47:21;18.00;99.90
15257;DHT22;7731;50.720;6.912;2022-08-18T01:49:52;18.00;99.90
15257;DHT22;7731;50.720;6.912;2022-08-18T01:52:23;18.00;99.90
15257;DHT22;7731;50.720;6.912;2022-08-18T01:54:58;17.90;99.90
15257;DHT22;7731;50.720;6.912;2022-08-18T01:57:28;17.90;99.90
15257;DHT22;7731;50.720;6.912;2022-08-18T01:59:58;17.80;99.90
15257;DHT22;7731;50.720;6.912;2022-08-18T02:02:30;17.70;99.90
15257;DHT22;7731;50.720;6.912;2022-08-18T02:05:06;17.60;99.90
15257;DHT22;7731;50.720;6.912;2022-08-18T02:07:39;17.50;99.90
15257;DHT22;7731;50.720;6.912;2022-08-18T02:10:13;17.50;99.90
15257;DHT22;7731;50.720;6.912;2022-08-18T02:12:44;17.60;99.90
15257;DHT22;7731;50.720;6.912;2022-08-18T02:15:14;17.70;99.90
15257;DHT22;7731;50.720;6.912;2022-08-18T02:17:45;17.80;99.90
15257;DHT22;7731;50.720;6.912;2022-08-18T02:20:17;17.90;99.90
15257;DHT22;7731;50.720;6.912;2022-08-18T02:22:48;17.80;99.90
15257;DHT22;7731;50.720;6.912;2022-08-18T02:25:21;17.80;99.90
15257;DHT22;7731;50.720;6.912;2022-08-18T02:27:51;17.80;99.90
15257;DHT22;7731;50.720;6.912;2022-08-18T02:30:22;17.70;99.90
15257;DHT22;7731;50.720;6.912;2022-08-18T02:32:52;17.60;99.90
15257;DHT22;7731;50.720;6.912;2022-08-18T02:35:22;17.50;99.90
15257;DHT22;7731;50.720;6.912;2022-08-18T02:37:58;17.50;99.90
15257;DHT22;7731;50.720;6.912;2022-08-18T02:40:33;17.30;99.90
15257;DHT22;7731;50.720;6.912;2022-08-18T02:43:05;17.40;99.90
15257;DHT22;7731;50.720;6.912;2022-08-18T02:45:36;17.40;99.90
15257;DHT22;7731;50.720;6.912;2022-08-18T02:48:08;17.40;99.90
15257;DHT22;7731;50.720;6.912;2022-08-18T02:50:40;17.40;99.90
15257;DHT22;7731;50.720;6.912;2022-08-18T02:53:16;17.30;99.90
15257;DHT22;7731;50.720;6.912;2022-08-18T02:56:04;17.30;99.90
15257;DHT22;7731;50.720;6.912;2022-08-18T02:59:10;17.30;99.90
15257;DHT22;7731;50.720;6.912;2022-08-18T03:01:43;17.20;99.90
15257;DHT22;7731;50.720;6.912;2022-08-18T03:04:19;17.10;99.90
15257;DHT22;7731;50.720;6.912;2022-08-18T03:06:57;17.20;99.90
15257;DHT22;7731;50.720;6.912;2022-08-18T03:09:30;17.20;99.90
15257;DHT22;7731;50.720;6.912;2022-08-18T03:12:04;17.20;99.90
15257;DHT22;7731;50.720;6.912;2022-08-18T03:14:36;17.30;99.90
15257;DHT22;7731;50.720;6.912;2022-08-18T03:17:08;17.30;99.90
15257;DHT22;7731;50.720;6.912;2022-08-18T03:19:43;17.30;99.90
15257;DHT22;7731;50.720;6.912;2022-08-18T03:22:18;17.20;99.90
15257;DHT22;7731;50.720;6.912;2022-08-18T03:24:55;17.10;99.90
15257;DHT22;7731;50.720;6.912;2022-08-18T03:27:28;17.10;99.90
15257;DHT22;7731;50.720;6.912;2022-08-18T03:29:59;17.20;99.90
15257;DHT22;7731;50.720;6.912;2022-08-18T03:32:37;17.30;99.90
15257;DHT22;7731;50.720;6.912;2022-08-18T03:35:11;17.40;99.90
15257;DHT22;7731;50.720;6.912;2022-08-18T03:37:42;17.70;99.90
15257;DHT22;7731;50.720;6.912;2022-08-18T03:40:13;17.80;99.90
15257;DHT22;7731;50.720;6.912;2022-08-18T03:42:46;17.90;99.90
15257;DHT22;7731;50.720;6.912;2022-08-18T03:45:16;17.70;99.90
15257;DHT22;7731;50.720;6.912;2022-08-18T03:47:46;17.50;99.90
15257;DHT22;7731;50.720;6.912;2022-08-18T03:50:19;17.40;99.90
15257;DHT22;7731;50.720;6.912;2022-08-18T03:52:51;17.40;99.90
15257;DHT22;7731;50.720;6.912;2022-08-18T03:55:26;17.30;99.90
15257;DHT22;7731;50.720;6.912;2022-08-18T03:58:01;17.30;99.90
15257;DHT22;7731;50.720;6.912;2022-08-18T04:00:32;17.20;99.90
15257;DHT22;7731;50.720;6.912;2022-08-18T04:03:06;17.10;99.90
15257;DHT22;7731;50.720;6.912;2022-08-18T04:05:38;17.20;99.90
15257;DHT22;7731;50.720;6.912;2022-08-18T04:08:09;17.20;99.90
15257;DHT22;7731;50.720;6.912;2022-08-18T04:10:43;17.10;99.90
15257;DHT22;7731;50.720;6.912;2022-08-18T04:13:16;17.20;99.90
15257;DHT22;7731;50.720;6.912;2022-08-18T04:15:46;17.20;99.90
15257;DHT22;7731;50.720;6.912;2022-08-18T04:18:16;17.20;99.90
15257;DHT22;7731;50.720;6.912;2022-08-18T04:20:46;17.20;99.90
15257;DHT22;7731;50.720;6.912;2022-08-18T04:23:26;17.20;99.90
15257;DHT22;7731;50.720;6.912;2022-08-18T04:26:10;17.30;99.90
15257;DHT22;7731;50.720;6.912;2022-08-18T04:28:48;17.30;99.90
15257;DHT22;7731;50.720;6.912;2022-08-18T04:31:18;17.20;99.90
15257;DHT22;7731;50.720;6.912;2022-08-18T04:33:50;17.30;99.90
15257;DHT22;7731;50.720;6.912;2022-08-18T04:36:21;17.20;99.90
15257;DHT22;7731;50.720;6.912;2022-08-18T04:38:51;17.20;99.90
15257;DHT22;7731;50.720;6.912;2022-08-18T04:41:22;17.10;99.90
15257;DHT22;7731;50.720;6.912;2022-08-18T04:43:57;17.10;99.90
15257;DHT22;7731;50.720;6.912;2022-08-18T04:46:29;17.10;99.90
15257;DHT22;7731;50.720;6.912;2022-08-18T04:49:06;17.40;99.90
15257;DHT22;7731;50.720;6.912;2022-08-18T04:51:42;17.40;99.90
15257;DHT22;7731;50.720;6.912;2022-08-18T04:54:56;17.50;99.90
15257;DHT22;7731;50.720;6.912;2022-08-18T04:57:24;17.50;99.90
15257;DHT22;7731;50.720;6.912;2022-08-18T05:00:04;17.40;99.90
15257;DHT22;7731;50.720;6.912;2022-08-18T05:02:41;17.40;99.90
15257;DHT22;7731;50.720;6.912;2022-08-18T05:05:12;17.40;99.90
15257;DHT22;7731;50.720;6.912;2022-08-18T05:07:43;17.40;99.90
15257;DHT22;7731;50.720;6.912;2022-08-18T05:10:15;17.40;99.90
15257;DHT22;7731;50.720;6.912;2022-08-18T05:12:47;17.40;99.90
15257;DHT22;7731;50.720;6.912;2022-08-18T05:15:20;17.30;99.90
15257;DHT22;7731;50.720;6.912;2022-08-18T05:17:50;17.30;99.90
15257;DHT22;7731;50.720;6.912;2022-08-18T05:20:21;17.40;99.90
15257;DHT22;7731;50.720;6.912;2022-08-18T05:22:52;17.40;99.90
15257;DHT22;7731;50.720;6.912;2022-08-18T05:25:23;17.60;99.90
15257;DHT22;7731;50.720;6.912;2022-08-18T05:27:55;17.70;99.90
15257;DHT22;7731;50.720;6.912;2022-08-18T05:30:32;17.80;99.90
15257;DHT22;7731;50.720;6.912;2022-08-18T05:33:03;17.90;99.90
15257;DHT22;7731;50.720;6.912;2022-08-18T05:35:36;17.90;99.90
15257;DHT22;7731;50.720;6.912;2022-08-18T05:38:25;18.00;99.90
15257;DHT22;7731;50.720;6.912;2022-08-18T05:41:19;18.40;99.90
15257;DHT22;7731;50.720;6.912;2022-08-18T05:44:05;18.60;99.90
15257;DHT22;7731;50.720;6.912;2022-08-18T05:46:43;18.60;99.90
15257;DHT22;7731;50.720;6.912;2022-08-18T05:49:19;18.70;99.90
15257;DHT22;7731;50.720;6.912;2022-08-18T05:51:53;18.60;99.90
15257;DHT22;7731;50.720;6.912;2022-08-18T05:54:35;18.60;99.90
15257;DHT22;7731;50.720;6.912;2022-08-18T05:57:21;18.70;99.90
15257;DHT22;7731;50.720;6.912;2022-08-18T05:59:57;18.70;99.90
15257;DHT22;7731;50.720;6.912;2022-08-18T06:02:36;18.60;99.90
15257;DHT22;7731;50.720;6.912;2022-08-18T06:05:14;18.50;99.90
15257;DHT22;7731;50.720;6.912;2022-08-18T06:07:54;18.60;99.90
15257;DHT22;7731;50.720;6.912;2022-08-18T06:10:27;18.70;99.90
15257;DHT22;7731;50.720;6.912;2022-08-18T06:12:59;18.70;99.90
15257;DHT22;7731;50.720;6.912;2022-08-18T06:15:38;18.70;99.90
15257;DHT22;7731;50.720;6.912;2022-08-18T06:18:30;18.70;99.90
15257;DHT22;7731;50.720;6.912;2022-08-18T06:21:23;18.80;99.90
15257;DHT22;7731;50.720;6.912;2022-08-18T06:24:14;18.80;99.90
15257;DHT22;7731;50.720;6.912;2022-08-18T06:26:57;18.80;99.90
15257;DHT22;7731;50.720;6.912;2022-08-18T06:29:45;18.70;99.90
15257;DHT22;7731;50.720;6.912;2022-08-18T06:38:44;18.90;99.90
15257;DHT22;7731;50.720;6.912;2022-08-18T06:41:27;19.10;99.90
15257;DHT22;7731;50.720;6.912;2022-08-18T06:44:16;19.10;99.90
15257;DHT22;7731;50.720;6.912;2022-08-18T06:46:58;19.00;99.90
15257;DHT22;7731;50.720;6.912;2022-08-18T06:49:43;19.00;99.90
15257;DHT22;7731;50.720;6.912;2022-08-18T06:52:23;18.90;99.90
15257;DHT22;7731;50.720;6.912;2022-08-18T06:55:04;18.90;99.90
15257;DHT22;7731;50.720;6.912;2022-08-18T06:57:38;19.00;99.90
15257;DHT22;7731;50.720;6.912;2022-08-18T07:00:27;19.00;99.90
15257;DHT22;7731;50.720;6.912;2022-08-18T07:03:06;19.20;99.90
15257;DHT22;7731;50.720;6.912;2022-08-18T07:05:59;19.20;99.90
15257;DHT22;7731;50.720;6.912;2022-08-18T07:08:34;19.20;99.90
15257;DHT22;7731;50.720;6.912;2022-08-18T07:11:18;19.20;99.90
15257;DHT22;7731;50.720;6.912;2022-08-18T07:13:53;19.20;99.90
15257;DHT22;7731;50.720;6.912;2022-08-18T07:16:43;19.20;99.90
15257;DHT22;7731;50.720;6.912;2022-08-18T07:19:28;19.30;99.90
15257;DHT22;7731;50.720;6.912;2022-08-18T07:22:02;19.20;99.90
15257;DHT22;7731;50.720;6.912;2022-08-18T07:24:39;19.20;99.90
15257;DHT22;7731;50.720;6.912;2022-08-18T07:27:16;19.20;99.90
15257;DHT22;7731;50.720;6.912;2022-08-18T07:30:03;19.20;99.90
15257;DHT22;7731;50.720;6.912;2022-08-18T07:32:45;19.20;99.90
15257;DHT22;7731;50.720;6.912;2022-08-18T07:35:23;19.20;99.90
15257;DHT22;7731;50.720;6.912;2022-08-18T07:38:01;19.20;99.90
15257;DHT22;7731;50.720;6.912;2022-08-18T07:41:09;19.30;99.90
15257;DHT22;7731;50.720;6.912;2022-08-18T07:43:58;19.40;99.90
15257;DHT22;7731;50.720;6.912;2022-08-18T07:46:44;19.60;99.90
15257;DHT22;7731;50.720;6.912;2022-08-18T07:49:22;19.80;99.90
15257;DHT22;7731;50.720;6.912;2022-08-18T07:52:00;20.00;99.90
15257;DHT22;7731;50.720;6.912;2022-08-18T07:55:03;20.30;99.90
15257;DHT22;7731;50.720;6.912;2022-08-18T07:57:43;20.30;99.90
15257;DHT22;7731;50.720;6.912;2022-08-18T08:00:26;20.20;99.90
15257;DHT22;7731;50.720;6.912;2022-08-18T08:03:29;20.20;99.90
15257;DHT22;7731;50.720;6.912;2022-08-18T08:06:14;20.20;99.90
15257;DHT22;7731;50.720;6.912;2022-08-18T08:09:02;20.00;99.90
15257;DHT22;7731;50.720;6.912;2022-08-18T08:11:50;19.90;99.90
15257;DHT22;7731;50.720;6.912;2022-08-18T08:14:38;20.00;99.90
15257;DHT22;7731;50.720;6.912;2022-08-18T08:17:30;19.90;99.90
15257;DHT22;7731;50.720;6.912;2022-08-18T08:20:17;19.80;99.90
15257;DHT22;7731;50.720;6.912;2022-08-18T08:23:09;19.90;99.90
15257;DHT22;7731;50.720;6.912;2022-08-18T08:25:59;19.90;99.90
15257;DHT22;7731;50.720;6.912;2022-08-18T08:28:53;19.90;99.90
15257;DHT22;7731;50.720;6.912;2022-08-18T08:31:38;20.30;99.90
15257;DHT22;7731;50.720;6.912;2022-08-18T08:34:21;20.40;99.90
15257;DHT22;7731;50.720;6.912;2022-08-18T08:37:00;20.50;99.90
15257;DHT22;7731;50.720;6.912;2022-08-18T08:39:39;20.50;99.90
15257;DHT22;7731;50.720;6.912;2022-08-18T08:42:19;20.50;99.90
15257;DHT22;7731;50.720;6.912;2022-08-18T08:45:07;20.60;99.90
15257;DHT22;7731;50.720;6.912;2022-08-18T08:47:46;20.50;99.90
15257;DHT22;7731;50.720;6.912;2022-08-18T08:50:40;20.70;99.90
15257;DHT22;7731;50.720;6.912;2022-08-18T08:53:20;20.70;99.90
15257;DHT22;7731;50.720;6.912;2022-08-18T08:55:59;20.80;99.90
15257;DHT22;7731;50.720;6.912;2022-08-18T08:58:42;20.90;99.90
15257;DHT22;7731;50.720;6.912;2022-08-18T09:01:21;20.90;99.90
15257;DHT22;7731;50.720;6.912;2022-08-18T09:04:02;20.90;99.90
15257;DHT22;7731;50.720;6.912;2022-08-18T09:06:52;21.10;99.90
15257;DHT22;7731;50.720;6.912;2022-08-18T09:10:08;21.30;91.10
15257;DHT22;7731;50.720;6.912;2022-08-18T09:13:12;21.60;32.30
15257;DHT22;7731;50.720;6.912;2022-08-18T09:16:17;21.90;7.70
15257;DHT22;7731;50.720;6.912;2022-08-18T09:19:10;21.70;39.20
15257;DHT22;7731;50.720;6.912;2022-08-18T09:22:04;21.40;77.30
15257;DHT22;7731;50.720;6.912;2022-08-18T09:24:46;21.30;93.30
15257;DHT22;7731;50.720;6.912;2022-08-18T09:27:30;21.20;92.30
15257;DHT22;7731;50.720;6.912;2022-08-18T09:30:42;21.10;99.90
15257;DHT22;7731;50.720;6.912;2022-08-18T09:33:33;21.20;93.50
15257;DHT22;7731;50.720;6.912;2022-08-18T09:36:59;21.30;94.70
15257;DHT22;7731;50.720;6.912;2022-08-18T09:39:39;21.30;83.10
15257;DHT22;7731;50.720;6.912;2022-08-18T09:42:40;21.20;99.10
15257;DHT22;7731;50.720;6.912;2022-08-18T09:48:32;21.20;99.90
15257;DHT22;7731;50.720;6.912;2022-08-18T09:51:31;21.40;99.90
15257;DHT22;7731;50.720;6.912;2022-08-18T09:54:14;21.80;35.70
15257;DHT22;7731;50.720;6.912;2022-08-18T09:57:18;22.40;1.00
15257;DHT22;7731;50.720;6.912;2022-08-18T09:59:57;23.00;1.00
15257;DHT22;7731;50.720;6.912;2022-08-18T10:03:09;23.30;1.00
15257;DHT22;7731;50.720;6.912;2022-08-18T10:06:16;23.60;1.00
15257;DHT22;7731;50.720;6.912;2022-08-18T10:12:31;23.70;1.00
15257;DHT22;7731;50.720;6.912;2022-08-18T10:15:29;23.80;1.00
15257;DHT22;7731;50.720;6.912;2022-08-18T10:18:57;24.00;99.90
15257;DHT22;7731;50.720;6.912;2022-08-18T10:22:34;23.90;1.00
15257;DHT22;7731;50.720;6.912;2022-08-18T10:25:11;23.80;1.00
15257;DHT22;7731;50.720;6.912;2022-08-18T10:27:52;24.10;1.00
15257;DHT22;7731;50.720;6.912;2022-08-18T10:33:59;23.80;1.00
15257;DHT22;7731;50.720;6.912;2022-08-18T10:43:42;23.50;1.00
15257;DHT22;7731;50.720;6.912;2022-08-18T10:45:23;23.80;1.00
15257;DHT22;7731;50.720;6.912;2022-08-18T10:49:46;23.90;1.00
15257;DHT22;7731;50.720;6.912;2022-08-18T11:07:10;25.20;1.00
15257;DHT22;7731;50.720;6.912;2022-08-18T11:09:47;25.10;1.00
15257;DHT22;7731;50.720;6.912;2022-08-18T11:13:01;25.50;99.90
15257;DHT22;7731;50.720;6.912;2022-08-18T11:15:46;26.20;1.00
15257;DHT22;7731;50.720;6.912;2022-08-18T11:18:32;26.40;99.90
15257;DHT22;7731;50.720;6.912;2022-08-18T11:21:24;26.20;1.00
15257;DHT22;7731;50.720;6.912;2022-08-18T11:24:17;26.50;91.60
15257;DHT22;7731;50.720;6.912;2022-08-18T11:26:52;26.30;1.00
15257;DHT22;7731;50.720;6.912;2022-08-18T11:29:29;27.00;1.00
15257;DHT22;7731;50.720;6.912;2022-08-18T11:32:05;27.30;1.00
15257;DHT22;7731;50.720;6.912;2022-08-18T11:34:40;28.10;99.90
15257;DHT22;7731;50.720;6.912;2022-08-18T11:37:23;28.60;1.00
15257;DHT22;7731;50.720;6.912;2022-08-18T11:40:30;28.80;1.00
15257;DHT22;7731;50.720;6.912;2022-08-18T11:43:33;28.90;1.00
15257;DHT22;7731;50.720;6.912;2022-08-18T11:46:13;28.60;1.00
15257;DHT22;7731;50.720;6.912;2022-08-18T11:49:16;27.80;1.00
15257;DHT22;7731;50.720;6.912;2022-08-18T11:51:58;27.30;99.90
15257;DHT22;7731;50.720;6.912;2022-08-18T11:54:38;26.60;1.00
15257;DHT22;7731;50.720;6.912;2022-08-18T11:57:37;26.20;99.90
15257;DHT22;7731;50.720;6.912;2022-08-18T12:00:37;25.90;1.00
15257;DHT22;7731;50.720;6.912;2022-08-18T12:03:27;26.00;99.90
15257;DHT22;7731;50.720;6.912;2022-08-18T12:06:11;26.00;99.90
15257;DHT22;7731;50.720;6.912;2022-08-18T12:08:57;25.80;99.90
15257;DHT22;7731;50.720;6.912;2022-08-18T12:11:32;26.10;99.90
15257;DHT22;7731;50.720;6.912;2022-08-18T12:14:20;26.00;99.90
15257;DHT22;7731;50.720;6.912;2022-08-18T12:17:12;26.00;99.90
15257;DHT22;7731;50.720;6.912;2022-08-18T12:19:46;25.60;1.00
15257;DHT22;7731;50.720;6.912;2022-08-18T12:22:20;25.60;1.00
15257;DHT22;7731;50.720;6.912;2022-08-18T12:24:54;25.20;99.90
15257;DHT22;7731;50.720;6.912;2022-08-18T12:27:28;24.90;99.90
15257;DHT22;7731;50.720;6.912;2022-08-18T12:30:04;24.70;1.00
15257;DHT22;7731;50.720;6.912;2022-08-18T12:32:43;24.70;44.20
15257;DHT22;7731;50.720;6.912;2022-08-18T12:35:31;24.70;99.90
15257;DHT22;7731;50.720;6.912;2022-08-18T12:38:03;24.60;99.90
15257;DHT22;7731;50.720;6.912;2022-08-18T12:40:40;25.00;99.90
15257;DHT22;7731;50.720;6.912;2022-08-18T12:43:11;25.00;99.90
15257;DHT22;7731;50.720;6.912;2022-08-18T12:45:44;25.00;99.90
15257;DHT22;7731;50.720;6.912;2022-08-18T12:48:15;24.90;1.00
15257;DHT22;7731;50.720;6.912;2022-08-18T12:50:48;25.00;99.90
15257;DHT22;7731;50.720;6.912;2022-08-18T12:53:38;25.10;96.20
15257;DHT22;7731;50.720;6.912;2022-08-18T12:56:31;25.60;99.90
15257;DHT22;7731;50.720;6.912;2022-08-18T12:59:04;25.80;1.00
15257;DHT22;7731;50.720;6.912;2022-08-18T13:01:40;26.00;99.90
15257;DHT22;7731;50.720;6.912;2022-08-18T13:04:11;26.00;99.90
15257;DHT22;7731;50.720;6.912;2022-08-18T13:06:47;25.80;99.90
15257;DHT22;7731;50.720;6.912;2022-08-18T13:09:28;25.40;1.00
15257;DHT22;7731;50.720;6.912;2022-08-18T13:12:21;25.40;99.90
15257;DHT22;7731;50.720;6.912;2022-08-18T13:14:53;25.70;1.00
15257;DHT22;7731;50.720;6.912;2022-08-18T13:17:28;25.70;1.00
15257;DHT22;7731;50.720;6.912;2022-08-18T13:20:02;25.90;1.00
15257;DHT22;7731;50.720;6.912;2022-08-18T13:22:35;26.00;99.90
15257;DHT22;7731;50.720;6.912;2022-08-18T13:25:09;25.90;99.90
15257;DHT22;7731;50.720;6.912;2022-08-18T13:27:59;26.20;1.00
15257;DHT22;7731;50.720;6.912;2022-08-18T13:30:30;26.40;1.00
15257;DHT22;7731;50.720;6.912;2022-08-18T13:33:04;26.80;99.90
15257;DHT22;7731;50.720;6.912;2022-08-18T13:35:54;27.00;99.90
15257;DHT22;7731;50.720;6.912;2022-08-18T13:38:25;27.00;99.90
15257;DHT22;7731;50.720;6.912;2022-08-18T13:40:57;26.90;99.90
15257;DHT22;7731;50.720;6.912;2022-08-18T13:43:36;27.20;22.20
15257;DHT22;7731;50.720;6.912;2022-08-18T13:46:09;26.80;99.90
15257;DHT22;7731;50.720;6.912;2022-08-18T13:48:47;26.80;99.90
15257;DHT22;7731;50.720;6.912;2022-08-18T13:51:22;26.70;99.90
15257;DHT22;7731;50.720;6.912;2022-08-18T13:53:53;26.80;99.90
15257;DHT22;7731;50.720;6.912;2022-08-18T13:56:43;27.00;99.90
15257;DHT22;7731;50.720;6.912;2022-08-18T13:59:18;26.90;99.90
15257;DHT22;7731;50.720;6.912;2022-08-18T14:01:50;26.90;99.90
15257;DHT22;7731;50.720;6.912;2022-08-18T14:04:24;26.80;99.90
15257;DHT22;7731;50.720;6.912;2022-08-18T14:06:59;26.80;99.90
15257;DHT22;7731;50.720;6.912;2022-08-18T14:09:36;26.70;99.90
15257;DHT22;7731;50.720;6.912;2022-08-18T14:12:12;26.40;1.00
15257;DHT22;7731;50.720;6.912;2022-08-18T14:14:55;26.60;99.90
15257;DHT22;7731;50.720;6.912;2022-08-18T14:17:27;26.40;99.90
15257;DHT22;7731;50.720;6.912;2022-08-18T14:20:01;26.60;99.90
15257;DHT22;7731;50.720;6.912;2022-08-18T14:22:50;26.70;99.90
15257;DHT22;7731;50.720;6.912;2022-08-18T14:25:34;26.50;99.90
15257;DHT22;7731;50.720;6.912;2022-08-18T14:28:18;26.40;99.90
15257;DHT22;7731;50.720;6.912;2022-08-18T14:30:51;26.30;99.90
15257;DHT22;7731;50.720;6.912;2022-08-18T14:33:25;26.50;99.90
15257;DHT22;7731;50.720;6.912;2022-08-18T14:36:19;26.70;99.90
15257;DHT22;7731;50.720;6.912;2022-08-18T14:38:56;26.90;99.90
15257;DHT22;7731;50.720;6.912;2022-08-18T14:41:27;26.80;99.90
15257;DHT22;7731;50.720;6.912;2022-08-18T14:43:58;27.00;41.10
15257;DHT22;7731;50.720;6.912;2022-08-18T14:46:40;27.10;26.50
15257;DHT22;7731;50.720;6.912;2022-08-18T14:49:21;27.10;1.00
15257;DHT22;7731;50.720;6.912;2022-08-18T14:51:57;27.00;1.00
15257;DHT22;7731;50.720;6.912;2022-08-18T14:54:40;26.80;1.00
15257;DHT22;7731;50.720;6.912;2022-08-18T14:57:12;26.70;99.90
15257;DHT22;7731;50.720;6.912;2022-08-18T14:59:42;26.80;99.90
15257;DHT22;7731;50.720;6.912;2022-08-18T15:02:18;26.70;99.90
15257;DHT22;7731;50.720;6.912;2022-08-18T15:04:53;26.70;99.90
15257;DHT22;7731;50.720;6.912;2022-08-18T15:07:28;26.50;99.90
15257;DHT22;7731;50.720;6.912;2022-08-18T15:10:01;26.60;99.90
15257;DHT22;7731;50.720;6.912;2022-08-18T15:12:42;26.60;99.90
15257;DHT22;7731;50.720;6.912;2022-08-18T15:15:14;26.50;1.00
15257;DHT22;7731;50.720;6.912;2022-08-18T15:17:49;26.60;1.00
15257;DHT22;7731;50.720;6.912;2022-08-18T15:20:25;26.50;1.00
15257;DHT22;7731;50.720;6.912;2022-08-18T15:23:02;26.30;44.70
15257;DHT22;7731;50.720;6.912;2022-08-18T15:25:54;26.20;49.90
15257;DHT22;7731;50.720;6.912;2022-08-18T15:28:25;26.30;91.00
15257;DHT22;7731;50.720;6.912;2022-08-18T15:30:56;26.30;75.90
15257;DHT22;7731;50.720;6.912;2022-08-18T15:33:46;26.30;1.00
15257;DHT22;7731;50.720;6.912;2022-08-18T15:36:17;26.40;1.00
15257;DHT22;7731;50.720;6.912;2022-08-18T15:38:58;26.30;74.80
15257;DHT22;7731;50.720;6.912;2022-08-18T15:41:33;26.20;99.90
15257;DHT22;7731;50.720;6.912;2022-08-18T15:44:10;26.40;99.90
15257;DHT22;7731;50.720;6.912;2022-08-18T15:46:41;26.40;99.90
15257;DHT22;7731;50.720;6.912;2022-08-18T15:49:19;26.30;99.90
15257;DHT22;7731;50.720;6.912;2022-08-18T15:51:52;26.20;99.90
15257;DHT22;7731;50.720;6.912;2022-08-18T15:54:25;26.20;99.90
15257;DHT22;7731;50.720;6.912;2022-08-18T15:56:57;26.30;86.90
15257;DHT22;7731;50.720;6.912;2022-08-18T15:59:30;26.20;99.90
15257;DHT22;7731;50.720;6.912;2022-08-18T16:02:07;26.30;91.20
15257;DHT22;7731;50.720;6.912;2022-08-18T16:04:45;26.30;36.90
15257;DHT22;7731;50.720;6.912;2022-08-18T16:07:15;26.30;51.90
15257;DHT22;7731;50.720;6.912;2022-08-18T16:10:10;26.40;44.30
15257;DHT22;7731;50.720;6.912;2022-08-18T16:12:40;26.30;53.60
15257;DHT22;7731;50.720;6.912;2022-08-18T16:15:13;26.30;91.10
15257;DHT22;7731;50.720;6.912;2022-08-18T16:17:47;26.40;1.00
15257;DHT22;7731;50.720;6.912;2022-08-18T16:20:20;26.40;1.00
15257;DHT22;7731;50.720;6.912;2022-08-18T16:22:55;26.50;1.00
15257;DHT22;7731;50.720;6.912;2022-08-18T16:25:29;26.40;1.00
15257;DHT22;7731;50.720;6.912;2022-08-18T16:28:00;26.40;1.00
15257;DHT22;7731;50.720;6.912;2022-08-18T16:30:31;26.50;1.00
15257;DHT22;7731;50.720;6.912;2022-08-18T16:33:04;26.40;1.00
15257;DHT22;7731;50.720;6.912;2022-08-18T16:35:36;26.40;1.00
15257;DHT22;7731;50.720;6.912;2022-08-18T16:38:11;26.40;1.00
15257;DHT22;7731;50.720;6.912;2022-08-18T16:40:46;26.40;1.00
15257;DHT22;7731;50.720;6.912;2022-08-18T16:43:17;26.40;1.00
15257;DHT22;7731;50.720;6.912;2022-08-18T16:45:49;26.50;1.00
15257;DHT22;7731;50.720;6.912;2022-08-18T16:48:21;26.40;1.00
15257;DHT22;7731;50.720;6.912;2022-08-18T16:51:15;26.30;1.00
15257;DHT22;7731;50.720;6.912;2022-08-18T16:53:48;26.20;1.00
15257;DHT22;7731;50.720;6.912;2022-08-18T16:56:28;26.20;1.00
15257;DHT22;7731;50.720;6.912;2022-08-18T16:59:00;26.20;1.00
15257;DHT22;7731;50.720;6.912;2022-08-18T17:01:45;26.00;1.00
15257;DHT22;7731;50.720;6.912;2022-08-18T17:04:30;26.00;1.00
15257;DHT22;7731;50.720;6.912;2022-08-18T17:07:03;25.90;1.00
15257;DHT22;7731;50.720;6.912;2022-08-18T17:09:34;25.90;1.00
15257;DHT22;7731;50.720;6.912;2022-08-18T17:12:08;25.70;1.00
15257;DHT22;7731;50.720;6.912;2022-08-18T17:14:38;25.60;17.40
15257;DHT22;7731;50.720;6.912;2022-08-18T17:17:08;25.60;41.40
15257;DHT22;7731;50.720;6.912;2022-08-18T17:19:39;25.50;47.60
15257;DHT22;7731;50.720;6.912;2022-08-18T17:22:10;25.50;29.70
15257;DHT22;7731;50.720;6.912;2022-08-18T17:24:41;25.50;31.30
15257;DHT22;7731;50.720;6.912;2022-08-18T17:27:20;25.50;94.50
15257;DHT22;7731;50.720;6.912;2022-08-18T17:30:10;25.50;99.90
15257;DHT22;7731;50.720;6.912;2022-08-18T17:32:46;25.40;99.90
15257;DHT22;7731;50.720;6.912;2022-08-18T17:35:23;25.40;99.90
15257;DHT22;7731;50.720;6.912;2022-08-18T17:37:59;25.30;99.90
15257;DHT22;7731;50.720;6.912;2022-08-18T17:40:37;25.20;99.90
15257;DHT22;7731;50.720;6.912;2022-08-18T17:43:16;25.20;99.90
15257;DHT22;7731;50.720;6.912;2022-08-18T17:45:53;25.20;99.90